Weather at Hillwood Heliport

Public forecast

Using degrees Fahrenheit for public forecast. Weather courtesy of forecast.io.

Closest aviation weather report (METAR) to Hillwood Heliport

Closest report is Fort Worth Alliance Airport, 0.8 nm (1.6 km) NW. Retrieved 2020/10/29 05:53 UTC (52 minutes ago):

KAFW 290553Z 23006KT 10SM CLR 03/01 A2985 RMK AO2 SLP114 T00330011 10072 20028 400890028 56009

Closest aviation forecast (TAF) to Hillwood Heliport

Closest forecast is Fort Worth Alliance Airport, 0.8 nm (1.6 km) NW. Retrieved 2020/10/29 06:39 UTC (6 minutes ago):

TAF KAFW 290536Z 2906/3006 24006KT P6SM FEW040 FM290900 27012KT P6SM BKN025 FM291100 28015G25KT P6SM OVC015 FM291700 33015G25KT P6SM BKN025 FM292100 33016KT P6SM SCT040 FM300400 34008KT P6SM SKC